Time;durP1;ratioP1;P1;durP2;ratioP2;P2;SDS_P1;SDS_P2;PMS_P1;PMS_P2;Temp;Humidity;BMP_temperature;BMP_pressure;BME280_temperature;BME280_humidity;BME280_pressure;Samples;Min_cycle;Max_cycle;Signal;HPM_P1;HPM_P2
2022/08/05 00:01:20;;;;;;;5.32;3.15;;;19.70;99.90;;;;;;5156552;27;20346;-70
2022/08/05 00:03:50;;;;;;;5.80;3.10;;;19.60;99.90;;;;;;5137751;27;20030;-70
2022/08/05 00:06:16;;;;;;;8.55;4.00;;;19.60;99.90;;;;;;5137914;27;20027;-70
2022/08/05 00:08:42;;;;;;;5.22;3.05;;;19.50;99.90;;;;;;5137592;27;20027;-71
2022/08/05 00:11:13;;;;;;;3.95;3.00;;;19.50;99.90;;;;;;5155620;27;20155;-70
2022/08/05 00:13:41;;;;;;;3.85;3.33;;;19.50;99.90;;;;;;5137623;27;20065;-71
2022/08/05 00:16:09;;;;;;;10.20;4.97;;;19.50;99.90;;;;;;5137329;27;20171;-70
2022/08/05 00:18:39;;;;;;;4.45;3.13;;;19.40;99.90;;;;;;5136784;27;20622;-70
2022/08/05 00:21:05;;;;;;;3.50;3.20;;;19.40;99.90;;;;;;5137253;27;20046;-70
2022/08/05 00:23:31;;;;;;;3.80;2.92;;;19.30;99.90;;;;;;5137017;27;20030;-70
2022/08/05 00:25:57;;;;;;;5.15;3.58;;;19.30;99.90;;;;;;5137090;27;20041;-70
2022/08/05 00:28:22;;;;;;;6.22;3.80;;;19.30;99.90;;;;;;5137039;27;20059;-70
2022/08/05 00:30:48;;;;;;;4.68;3.55;;;19.30;99.90;;;;;;5137037;27;20050;-70
2022/08/05 00:33:16;;;;;;;4.70;4.10;;;19.20;99.90;;;;;;5155570;27;20058;-70
2022/08/05 00:35:41;;;;;;;9.38;4.30;;;19.20;99.90;;;;;;5155502;27;20023;-70
2022/08/05 00:38:07;;;;;;;6.20;3.70;;;19.10;99.90;;;;;;5136868;27;20029;-71
2022/08/05 00:40:33;;;;;;;4.05;3.67;;;19.10;99.90;;;;;;5155027;27;20484;-70
2022/08/05 00:43:01;;;;;;;3.70;3.40;;;19.10;99.90;;;;;;5155655;27;20015;-70
2022/08/05 00:45:27;;;;;;;4.10;3.75;;;19.10;99.90;;;;;;5155298;27;20066;-70
2022/08/05 00:47:53;;;;;;;6.15;3.97;;;19.10;99.90;;;;;;5136724;27;20082;-70
2022/08/05 00:50:18;;;;;;;6.68;3.58;;;19.10;99.90;;;;;;5136964;27;20027;-70
2022/08/05 00:52:44;;;;;;;3.80;3.40;;;19.00;99.90;;;;;;5136808;27;20029;-70
2022/08/05 00:55:11;;;;;;;6.53;4.00;;;18.90;99.90;;;;;;5136362;27;20432;-70
2022/08/05 00:57:36;;;;;;;4.10;3.70;;;18.90;99.90;;;;;;5155736;27;20074;-70
2022/08/05 01:00:04;;;;;;;5.78;3.72;;;18.90;99.90;;;;;;5136848;27;20034;-70
2022/08/05 01:02:29;;;;;;;4.65;4.20;;;18.80;99.90;;;;;;5155080;27;20129;-70
2022/08/05 01:04:55;;;;;;;5.32;4.03;;;18.80;99.90;;;;;;5154999;27;20031;-71
2022/08/05 01:07:21;;;;;;;4.28;3.88;;;18.80;99.90;;;;;;5155133;27;20141;-70
2022/08/05 01:09:46;;;;;;;4.95;3.88;;;18.80;99.90;;;;;;5136501;27;20026;-70
2022/08/05 01:12:16;;;;;;;7.10;4.10;;;18.80;99.90;;;;;;5136467;27;20048;-70
2022/08/05 01:15:02;;;;;;;4.65;4.18;;;18.70;99.90;;;;;;5154992;27;20026;-70
2022/08/05 01:17:35;;;;;;;5.82;4.05;;;18.70;99.90;;;;;;5154947;27;20029;-70
2022/08/05 01:20:30;;;;;;;10.07;4.13;;;18.70;99.90;;;;;;5155131;27;20022;-70
2022/08/05 01:23:20;;;;;;;10.43;4.25;;;18.60;99.90;;;;;;5154765;27;20031;-70
2022/08/05 01:25:45;;;;;;;4.45;3.88;;;18.60;99.90;;;;;;5136371;27;20031;-70
2022/08/05 01:28:37;;;;;;;5.82;4.50;;;18.60;99.90;;;;;;5155051;27;20038;-70
2022/08/05 01:31:30;;;;;;;6.30;4.53;;;18.60;99.90;;;;;;5140110;27;20078;-70
2022/08/05 01:34:08;;;;;;;24.50;4.85;;;18.50;99.90;;;;;;5140432;27;20027;-70
2022/08/05 01:36:42;;;;;;;4.93;4.20;;;18.50;99.90;;;;;;5140629;27;20425;-70
2022/08/05 01:39:09;;;;;;;7.22;4.45;;;18.40;99.90;;;;;;5158906;27;20073;-70
2022/08/05 01:41:36;;;;;;;5.05;3.70;;;20.30;99.90;;;;;;5158979;27;20130;-70
2022/08/05 01:44:05;;;;;;;4.85;4.03;;;18.40;99.90;;;;;;5158390;27;20030;-70
2022/08/05 01:46:33;;;;;;;5.80;3.60;;;18.40;99.90;;;;;;5158777;27;20034;-70
2022/08/05 01:49:00;;;;;;;3.88;3.58;;;18.30;99.90;;;;;;5140072;27;20467;-70
2022/08/05 01:51:28;;;;;;;5.45;4.07;;;18.40;99.90;;;;;;5140168;27;20355;-70
2022/08/05 01:53:55;;;;;;;4.13;3.73;;;18.30;99.90;;;;;;5140387;27;20117;-70
2022/08/05 01:56:23;;;;;;;6.82;3.80;;;18.30;99.90;;;;;;5159088;27;20751;-70
2022/08/05 01:58:52;;;;;;;5.65;4.10;;;18.30;99.90;;;;;;5139897;27;20050;-70
2022/08/05 02:01:18;;;;;;;;;;;18.30;99.90;;;;;;5158958;27;20046;-70
2022/08/05 02:03:46;;;;;;;5.90;4.43;;;18.20;99.90;;;;;;5158377;27;19907;-70
2022/08/05 02:06:13;;;;;;;8.25;3.72;;;18.20;99.90;;;;;;5157997;27;20054;-70
2022/08/05 02:08:39;;;;;;;4.72;4.13;;;18.20;99.90;;;;;;5139729;27;20018;-70
2022/08/05 02:11:10;;;;;;;5.65;4.13;;;18.10;99.90;;;;;;5139648;27;20110;-70
2022/08/05 02:13:46;;;;;;;7.57;4.25;;;18.10;99.90;;;;;;5158000;27;20027;-70
2022/08/05 02:16:26;;;;;;;4.47;3.78;;;18.10;99.90;;;;;;5139101;27;20035;-70
2022/08/05 02:18:58;;;;;;;5.50;3.97;;;18.10;99.90;;;;;;5158212;27;20019;-70
2022/08/05 02:21:38;;;;;;;5.13;4.07;;;18.10;99.90;;;;;;5158076;27;20026;-70
2022/08/05 02:24:09;;;;;;;4.18;3.72;;;18.00;99.90;;;;;;5157641;27;20031;-70
2022/08/05 02:26:45;;;;;;;4.07;3.78;;;18.00;99.90;;;;;;5140115;27;20058;-70
2022/08/05 02:29:15;;;;;;;6.40;4.43;;;18.00;99.90;;;;;;5157682;27;20023;-70
2022/08/05 02:31:44;;;;;;;5.80;3.88;;;18.00;99.90;;;;;;5157396;27;20091;-70
2022/08/05 02:34:12;;;;;;;6.57;3.92;;;17.90;99.90;;;;;;5157310;27;20022;-70
2022/08/05 02:36:43;;;;;;;4.88;3.53;;;17.90;99.90;;;;;;5157794;27;20037;-70
2022/08/05 02:39:09;;;;;;;6.50;4.38;;;17.80;99.90;;;;;;5157629;27;20023;-70
2022/08/05 02:41:36;;;;;;;4.30;3.90;;;17.80;99.90;;;;;;5157346;27;20039;-70
2022/08/05 02:44:07;;;;;;;4.63;4.00;;;17.80;99.90;;;;;;5157581;27;20029;-70
2022/08/05 02:46:34;;;;;;;6.53;4.45;;;17.80;99.90;;;;;;5157664;27;20035;-70
2022/08/05 02:49:00;;;;;;;4.95;4.28;;;17.80;99.90;;;;;;5157368;27;20026;-70
2022/08/05 02:51:27;;;;;;;5.95;4.40;;;17.80;99.90;;;;;;5157259;27;20098;-70
2022/08/05 02:53:53;;;;;;;4.65;4.18;;;17.70;99.90;;;;;;5156982;27;20027;-70
2022/08/05 02:56:20;;;;;;;4.55;4.10;;;17.70;99.90;;;;;;5138967;27;20023;-71
2022/08/05 02:58:49;;;;;;;6.43;4.50;;;17.70;99.90;;;;;;5138552;27;20019;-70
2022/08/05 03:01:19;;;;;;;;;;;17.70;99.90;;;;;;5157517;27;20018;-70
2022/08/05 03:03:49;;;;;;;5.32;4.28;;;17.70;99.90;;;;;;5156934;27;19913;-71
2022/08/05 03:06:15;;;;;;;4.78;3.92;;;17.70;99.90;;;;;;5138361;27;20140;-70
2022/08/05 03:08:42;;;;;;;14.18;5.78;;;17.70;99.90;;;;;;5157423;27;20095;-70
2022/08/05 03:11:19;;;;;;;6.50;4.38;;;17.70;99.90;;;;;;5138266;27;20445;-70
2022/08/05 03:13:45;;;;;;;5.38;4.30;;;17.70;99.90;;;;;;5157152;27;20026;-71
2022/08/05 03:16:10;;;;;;;5.35;4.13;;;17.70;99.90;;;;;;5138143;27;20447;-70
2022/08/05 03:18:36;;;;;;;7.45;4.53;;;17.70;99.90;;;;;;5138299;27;20065;-70
2022/08/05 03:21:01;;;;;;;5.47;4.13;;;17.70;99.90;;;;;;5138158;27;20361;-70
2022/08/05 03:23:28;;;;;;;4.70;4.18;;;17.70;99.90;;;;;;5156267;27;20027;-70
2022/08/05 03:25:54;;;;;;;10.45;4.38;;;17.70;99.90;;;;;;5138114;27;20452;-70
2022/08/05 03:28:20;;;;;;;11.20;4.63;;;17.70;99.90;;;;;;5138048;27;20114;-70
2022/08/05 03:30:47;;;;;;;5.28;4.80;;;17.70;99.90;;;;;;5156648;27;20448;-70
2022/08/05 03:33:13;;;;;;;4.30;3.90;;;17.70;99.90;;;;;;5156627;27;20030;-70
2022/08/05 03:35:38;;;;;;;7.00;3.63;;;17.70;99.90;;;;;;5156468;27;20371;-69
2022/08/05 03:38:04;;;;;;;7.68;4.75;;;17.70;99.90;;;;;;5156102;27;20027;-69
2022/08/05 03:40:30;;;;;;;6.78;4.75;;;17.70;99.90;;;;;;5155975;27;20380;-70
2022/08/05 03:42:55;;;;;;;6.70;3.90;;;17.60;99.90;;;;;;5156432;27;20015;-70
2022/08/05 03:45:21;;;;;;;7.30;4.22;;;17.70;99.90;;;;;;5156364;27;20026;-70
2022/08/05 03:47:47;;;;;;;4.45;4.03;;;17.60;99.90;;;;;;5156549;27;20063;-70
2022/08/05 03:50:12;;;;;;;9.38;5.10;;;17.70;99.90;;;;;;5137711;27;20067;-69
2022/08/05 03:53:08;;;;;;;4.85;4.45;;;17.70;99.90;;;;;;5137681;27;20027;-70
2022/08/05 03:55:38;;;;;;;7.00;4.88;;;17.70;99.90;;;;;;5120291;27;20191;-70
2022/08/05 03:58:09;;;;;;;7.00;4.72;;;17.60;99.90;;;;;;5156250;27;20027;-70
2022/08/05 04:00:36;;;;;;;5.90;4.57;;;17.70;99.90;;;;;;5156734;27;20023;-70
2022/08/05 04:03:03;;;;;;;5.88;4.32;;;17.70;99.90;;;;;;5137699;27;20027;-70
2022/08/05 04:05:32;;;;;;;6.57;4.03;;;17.70;99.90;;;;;;5156236;27;20026;-70
2022/08/05 04:07:58;;;;;;;4.82;4.43;;;17.70;99.90;;;;;;5156375;27;20031;-70
2022/08/05 04:10:28;;;;;;;9.80;5.30;;;17.70;99.90;;;;;;5155943;27;20050;-70
2022/08/05 04:12:55;;;;;;;4.88;4.38;;;17.70;99.90;;;;;;5137230;27;20058;-70
2022/08/05 04:15:21;;;;;;;4.60;4.20;;;17.80;99.90;;;;;;5155492;27;20030;-70
2022/08/05 04:17:47;;;;;;;4.47;4.07;;;17.80;99.90;;;;;;5136780;27;20361;-70
2022/08/05 04:20:21;;;;;;;6.82;3.95;;;17.90;99.90;;;;;;5136763;27;20033;-70
2022/08/05 04:22:47;;;;;;;6.82;3.97;;;17.90;99.90;;;;;;5136576;27;20026;-70
2022/08/05 04:25:13;;;;;;;4.68;4.28;;;18.00;99.90;;;;;;5136763;27;20087;-70
2022/08/05 04:27:38;;;;;;;5.03;3.78;;;18.00;99.90;;;;;;5136848;27;20066;-70
2022/08/05 04:30:05;;;;;;;5.82;4.22;;;18.10;99.90;;;;;;5155395;27;20452;-69
2022/08/05 04:32:31;;;;;;;5.65;4.18;;;18.20;99.90;;;;;;5136603;27;20022;-69
2022/08/05 04:34:57;;;;;;;5.07;4.30;;;18.20;99.90;;;;;;5136783;27;20027;-75
2022/08/05 04:37:22;;;;;;;5.13;3.95;;;18.30;99.90;;;;;;5155407;27;20412;-72
2022/08/05 04:39:48;;;;;;;7.22;3.97;;;18.30;99.90;;;;;;5155357;27;20076;-77
2022/08/05 04:42:14;;;;;;;6.00;4.93;;;18.40;99.90;;;;;;5136581;27;20078;-76
2022/08/05 04:44:40;;;;;;;5.85;4.45;;;18.50;99.90;;;;;;5155254;27;20062;-77
2022/08/05 04:47:06;;;;;;;5.32;4.38;;;18.50;99.90;;;;;;5154912;27;20026;-78
2022/08/05 04:49:32;;;;;;;8.70;3.47;;;18.50;99.90;;;;;;5155357;27;20038;-78
2022/08/05 04:51:57;;;;;;;3.97;3.67;;;18.60;99.90;;;;;;5136639;27;20026;-78
2022/08/05 04:54:25;;;;;;;5.13;4.07;;;18.60;99.90;;;;;;5136653;27;20027;-77
2022/08/05 04:56:52;;;;;;;5.13;4.55;;;18.70;99.90;;;;;;5155214;27;20423;-77
2022/08/05 04:59:19;;;;;;;11.48;4.47;;;18.70;99.90;;;;;;5155177;27;20029;-77
2022/08/05 05:01:45;;;;;;;5.78;4.20;;;18.80;99.90;;;;;;5136494;27;20375;-78
2022/08/05 05:04:10;;;;;;;6.07;3.88;;;18.80;99.90;;;;;;5154242;27;20109;-78
2022/08/05 05:06:37;;;;;;;5.35;4.55;;;19.00;99.90;;;;;;5154851;27;20095;-68
2022/08/05 05:09:02;;;;;;;4.93;3.95;;;19.00;99.90;;;;;;5155116;27;20022;-68
2022/08/05 05:11:28;;;;;;;5.82;4.07;;;19.10;99.90;;;;;;5136208;27;20030;-72
2022/08/05 05:13:54;;;;;;;9.57;4.35;;;19.20;99.90;;;;;;5154601;27;20072;-72
2022/08/05 05:16:19;;;;;;;10.70;4.38;;;19.20;99.90;;;;;;5154360;27;20413;-72
2022/08/05 05:18:45;;;;;;;9.38;3.92;;;19.30;99.90;;;;;;5136024;27;20027;-72
2022/08/05 05:21:11;;;;;;;6.05;4.00;;;19.40;99.90;;;;;;5154668;27;20023;-72
2022/08/05 05:23:36;;;;;;;8.25;4.70;;;19.50;99.90;;;;;;5136281;27;20027;-73
2022/08/05 05:26:03;;;;;;;6.70;4.22;;;19.60;99.90;;;;;;5136133;27;20034;-72
2022/08/05 05:28:28;;;;;;;6.93;3.92;;;19.70;99.90;;;;;;5154246;27;20460;-70
2022/08/05 05:30:54;;;;;;;3.95;3.38;;;19.80;99.90;;;;;;5154157;27;20037;-69
2022/08/05 05:33:20;;;;;;;5.70;4.55;;;19.90;99.90;;;;;;5135864;27;20100;-69
2022/08/05 05:35:46;;;;;;;4.05;3.72;;;20.10;99.90;;;;;;5154348;27;20034;-67
2022/08/05 05:38:12;;;;;;;5.25;4.15;;;20.20;99.90;;;;;;5154524;27;20019;-67
2022/08/05 05:40:38;;;;;;;8.38;3.60;;;20.30;99.90;;;;;;5135748;27;20099;-68
2022/08/05 05:43:04;;;;;;;6.88;3.78;;;20.40;99.90;;;;;;5154310;27;20019;-67
2022/08/05 05:45:30;;;;;;;7.05;4.57;;;20.60;99.90;;;;;;5154406;27;20079;-67
2022/08/05 05:47:59;;;;;;;6.22;3.85;;;20.70;99.90;;;;;;5136020;27;20424;-67
2022/08/05 05:50:25;;;;;;;6.82;4.22;;;20.80;99.90;;;;;;5135901;27;20023;-56
2022/08/05 05:52:50;;;;;;;5.53;3.83;;;20.90;99.90;;;;;;5154584;27;20031;-57
2022/08/05 05:55:17;;;;;;;8.80;4.15;;;21.10;99.90;;;;;;5154477;27;20536;-56
2022/08/05 05:57:44;;;;;;;4.35;3.70;;;21.30;99.90;;;;;;5154578;27;20058;-56
2022/08/05 06:00:13;;;;;;;6.57;3.53;;;21.50;99.90;;;;;;5154260;27;20404;-57
2022/08/05 06:02:40;;;;;;;6.97;4.28;;;21.90;99.90;;;;;;5154454;27;20030;-56
2022/08/05 06:05:09;;;;;;;7.05;3.30;;;22.50;99.90;;;;;;5153999;27;20031;-57
2022/08/05 06:07:36;;;;;;;6.18;3.40;;;23.10;99.90;;;;;;5154199;27;20027;-56
2022/08/05 06:10:03;;;;;;;5.07;2.90;;;23.70;99.90;;;;;;5136130;27;20464;-64
2022/08/05 06:12:29;;;;;;;5.63;3.17;;;24.40;99.90;;;;;;5154458;27;20037;-64
2022/08/05 06:14:55;;;;;;;5.70;3.50;;;25.00;99.90;;;;;;5154566;27;20106;-65
2022/08/05 06:17:21;;;;;;;10.38;4.47;;;25.40;98.50;;;;;;5139767;27;20441;-65
2022/08/05 06:19:47;;;;;;;8.93;3.50;;;25.80;97.70;;;;;;5158758;27;20030;-65
2022/08/05 06:22:23;;;;;;;5.15;3.20;;;26.20;95.10;;;;;;5158535;27;20018;-65
2022/08/05 06:24:49;;;;;;;10.48;3.20;;;26.60;93.10;;;;;;5139871;27;20033;-65
2022/08/05 06:27:14;;;;;;;4.45;3.47;;;26.80;92.10;;;;;;5158509;27;20101;-65
2022/08/05 06:29:40;;;;;;;4.13;3.13;;;27.00;90.80;;;;;;5158383;27;20369;-65
2022/08/05 06:32:06;;;;;;;6.80;3.55;;;27.30;89.50;;;;;;5158383;27;20073;-69
2022/08/05 06:34:32;;;;;;;3.42;3.03;;;27.70;87.20;;;;;;5157667;27;20360;-59
2022/08/05 06:36:57;;;;;;;6.47;3.30;;;27.80;84.30;;;;;;5157531;27;20106;-58
2022/08/05 06:39:23;;;;;;;6.20;2.90;;;27.90;82.60;;;;;;5157903;27;20229;-58
2022/08/05 06:41:49;;;;;;;3.63;3.15;;;28.10;81.10;;;;;;5138938;27;20099;-66
2022/08/05 06:44:14;;;;;;;12.45;3.13;;;28.10;78.10;;;;;;5157584;27;20027;-65
2022/08/05 06:46:40;;;;;;;11.70;3.67;;;28.00;78.40;;;;;;5139015;27;20022;-66
2022/08/05 06:49:06;;;;;;;7.32;3.03;;;28.10;78.80;;;;;;5157106;27;20360;-65
2022/08/05 06:51:31;;;;;;;3.33;3.03;;;28.40;77.60;;;;;;5157044;27;20491;-66
2022/08/05 06:53:58;;;;;;;3.88;3.25;;;28.80;76.10;;;;;;5157837;27;20043;-72
2022/08/05 06:56:24;;;;;;;4.88;3.10;;;28.90;74.50;;;;;;5156909;27;20035;-67
2022/08/05 06:58:50;;;;;;;4.05;2.72;;;29.40;73.60;;;;;;5157184;27;20030;-67
2022/08/05 07:01:15;;;;;;;3.67;2.65;;;29.70;70.40;;;;;;5138501;27;20061;-67
2022/08/05 07:03:41;;;;;;;4.18;2.70;;;29.80;69.60;;;;;;5138591;27;20138;-67
2022/08/05 07:06:07;;;;;;;5.60;2.58;;;30.00;68.10;;;;;;5157497;27;20507;-67
2022/08/05 07:08:33;;;;;;;4.35;2.78;;;30.20;67.40;;;;;;5138664;27;20069;-67
2022/08/05 07:10:58;;;;;;;3.85;2.80;;;30.30;65.40;;;;;;5138518;27;20400;-68
2022/08/05 07:18:52;;;;;;;3.65;2.75;;;30.80;62.40;;;;;;5157081;27;20033;-68
2022/08/05 07:21:18;;;;;;;4.22;2.47;;;31.40;62.10;;;;;;5137897;27;20019;-68
2022/08/05 07:23:44;;;;;;;4.95;2.38;;;31.80;60.50;;;;;;5137672;27;20057;-68
2022/08/05 07:26:10;;;;;;;5.20;2.42;;;32.30;59.00;;;;;;5137960;27;20030;-69
2022/08/05 07:28:35;;;;;;;5.63;2.90;;;32.50;57.70;;;;;;5136750;27;20081;-68
2022/08/05 07:31:01;;;;;;;6.10;2.90;;;32.50;57.10;;;;;;5137732;27;20019;-68
2022/08/05 07:33:27;;;;;;;4.28;2.22;;;32.80;56.00;;;;;;5138257;27;20023;-68
2022/08/05 07:35:52;;;;;;;5.63;2.70;;;33.10;55.20;;;;;;5156780;27;20027;-69
2022/08/05 07:38:18;;;;;;;2.95;2.20;;;33.20;54.60;;;;;;5156681;27;20019;-68
2022/08/05 07:40:45;;;;;;;2.67;2.47;;;33.50;54.30;;;;;;5156153;27;20051;-68
2022/08/05 07:43:12;;;;;;;3.97;2.30;;;33.60;53.50;;;;;;5156043;27;20360;-68
2022/08/05 07:45:39;;;;;;;3.13;2.45;;;33.90;52.70;;;;;;5156128;27;20033;-68
2022/08/05 07:48:05;;;;;;;3.13;2.45;;;34.30;51.90;;;;;;5156106;27;20031;-68
2022/08/05 07:50:31;;;;;;;6.20;2.10;;;34.30;51.00;;;;;;5156487;27;20027;-68
2022/08/05 07:52:56;;;;;;;7.72;2.30;;;34.50;50.90;;;;;;5156064;27;20073;-68
2022/08/05 07:55:22;;;;;;;3.88;2.42;;;34.60;50.70;;;;;;5137336;27;20031;-68
2022/08/05 07:57:47;;;;;;;3.42;2.53;;;34.60;49.20;;;;;;5156036;27;20524;-68
2022/08/05 08:00:13;;;;;;;3.15;2.40;;;34.20;49.80;;;;;;5137336;27;20471;-68
2022/08/05 08:02:39;;;;;;;7.97;2.60;;;34.40;50.00;;;;;;5155975;27;20027;-68
2022/08/05 08:05:05;;;;;;;5.75;2.50;;;34.70;48.60;;;;;;5155924;27;20033;-68
2022/08/05 08:07:31;;;;;;;4.68;2.35;;;34.90;49.00;;;;;;5137191;27;20032;-68
2022/08/05 08:09:57;;;;;;;4.18;2.25;;;35.50;48.40;;;;;;5155691;27;20023;-68
2022/08/05 08:12:23;;;;;;;4.38;2.85;;;35.60;47.50;;;;;;5155730;27;20050;-68
2022/08/05 08:14:49;;;;;;;4.55;2.42;;;35.70;46.90;;;;;;5156065;27;20034;-68
2022/08/05 08:17:14;;;;;;;6.22;2.65;;;36.10;47.10;;;;;;5155326;27;20019;-68
2022/08/05 08:19:40;;;;;;;3.42;2.88;;;36.40;46.10;;;;;;5136906;27;20161;-68
2022/08/05 08:22:07;;;;;;;4.65;2.80;;;36.50;45.80;;;;;;5155199;27;20404;-68
2022/08/05 08:24:33;;;;;;;4.60;2.28;;;36.60;45.10;;;;;;5136679;27;20068;-68
2022/08/05 08:26:59;;;;;;;5.25;2.28;;;36.60;45.20;;;;;;5137313;27;20061;-68
2022/08/05 08:29:24;;;;;;;5.55;2.50;;;36.50;45.20;;;;;;5155281;27;20034;-68
2022/08/05 08:31:51;;;;;;;3.45;2.30;;;36.60;44.80;;;;;;5136822;27;20356;-68
2022/08/05 08:34:21;;;;;;;2.60;2.40;;;37.10;44.50;;;;;;5137046;27;20091;-68
2022/08/05 08:36:47;;;;;;;6.05;2.58;;;37.20;43.90;;;;;;5155585;27;20095;-68
2022/08/05 08:39:13;;;;;;;4.15;2.50;;;37.70;43.60;;;;;;5136308;27;20058;-68
2022/08/05 08:41:43;;;;;;;5.50;2.60;;;37.90;43.20;;;;;;5154861;27;20043;-68
2022/08/05 08:44:17;;;;;;;3.95;2.97;;;37.90;42.70;;;;;;5136355;27;20057;-68
2022/08/05 08:46:44;;;;;;;4.40;2.65;;;38.00;42.60;;;;;;5136688;27;20030;-68
2022/08/05 08:49:13;;;;;;;3.33;2.43;;;38.20;42.60;;;;;;5155192;27;20446;-68
2022/08/05 08:51:41;;;;;;;5.53;2.40;;;38.40;42.20;;;;;;5136710;27;20089;-68
2022/08/05 08:54:07;;;;;;;5.85;2.78;;;38.60;41.60;;;;;;5154796;27;20475;-69
2022/08/05 08:56:33;;;;;;;4.78;2.70;;;38.30;42.00;;;;;;5135779;27;20034;-69
2022/08/05 08:59:00;;;;;;;3.30;2.20;;;38.20;41.50;;;;;;5154515;27;20049;-69
2022/08/05 09:01:25;;;;;;;3.03;2.28;;;38.40;41.40;;;;;;5136274;27;20477;-69
2022/08/05 09:03:54;;;;;;;7.75;2.70;;;37.90;41.70;;;;;;5136138;27;20030;-69
2022/08/05 09:06:21;;;;;;;5.32;2.47;;;38.20;42.30;;;;;;5154631;27;20029;-69
2022/08/05 09:08:47;;;;;;;2.20;2.05;;;38.00;41.50;;;;;;5136580;27;20027;-73
2022/08/05 09:11:13;;;;;;;4.53;2.20;;;38.60;41.60;;;;;;5136095;27;20018;-74
2022/08/05 09:13:40;;;;;;;4.60;2.55;;;38.90;41.10;;;;;;5155101;27;20037;-73
2022/08/05 09:16:08;;;;;;;6.45;2.55;;;39.40;40.30;;;;;;5154640;27;20086;-73
2022/08/05 09:18:35;;;;;;;2.42;2.33;;;39.10;40.10;;;;;;5154478;27;20489;-74
2022/08/05 09:21:01;;;;;;;4.50;2.28;;;38.70;39.80;;;;;;5135703;27;20491;-74
2022/08/05 09:23:27;;;;;;;11.65;2.55;;;38.90;40.50;;;;;;5154370;27;20030;-75
2022/08/05 09:26:10;;;;;;;5.70;2.42;;;39.30;40.30;;;;;;5136481;27;20033;-69
2022/08/05 09:28:38;;;;;;;3.03;2.58;;;39.80;39.70;;;;;;5155185;27;20133;-69
2022/08/05 09:31:07;;;;;;;4.53;3.20;;;40.20;39.30;;;;;;5136303;27;20019;-69
2022/08/05 09:33:53;;;;;;;2.58;2.13;;;40.70;38.60;;;;;;5154885;27;20110;-69
2022/08/05 09:36:19;;;;;;;4.18;2.35;;;40.50;38.30;;;;;;5135731;27;20090;-72
2022/08/05 09:38:59;;;;;;;4.15;2.20;;;40.60;38.60;;;;;;5154527;27;20460;-75
2022/08/05 09:41:25;;;;;;;7.20;3.00;;;40.90;38.30;;;;;;5135646;27;20518;-74
2022/08/05 09:43:51;;;;;;;2.75;2.55;;;41.00;38.00;;;;;;5135628;27;20022;-73
2022/08/05 09:46:29;;;;;;;2.97;2.45;;;41.10;37.40;;;;;;5154099;27;20042;-74
2022/08/05 09:48:57;;;;;;;9.65;2.53;;;40.60;37.60;;;;;;5153786;27;20091;-73
2022/08/05 09:51:32;;;;;;;6.38;2.70;;;40.20;38.50;;;;;;5137110;27;20023;-73
2022/08/05 09:53:58;;;;;;;5.18;2.40;;;40.90;38.40;;;;;;5139574;27;20027;-73
2022/08/05 09:56:29;;;;;;;3.13;2.78;;;41.30;37.10;;;;;;5158215;27;20551;-73
2022/08/05 09:59:02;;;;;;;7.40;2.67;;;41.50;37.40;;;;;;5158254;27;20494;-75
2022/08/05 10:01:32;;;;;;;3.10;2.50;;;41.30;37.00;;;;;;5139997;27;20038;-73
2022/08/05 10:04:04;;;;;;;2.70;2.50;;;41.70;36.90;;;;;;5157919;27;20019;-72
2022/08/05 10:06:30;;;;;;;3.70;2.80;;;41.80;36.90;;;;;;5139513;27;20027;-73
2022/08/05 10:09:09;;;;;;;2.85;2.65;;;41.80;36.50;;;;;;5158130;27;20375;-73
2022/08/05 10:11:34;;;;;;;2.50;2.30;;;41.20;36.80;;;;;;5139889;27;20022;-72
2022/08/05 10:14:37;;;;;;;6.47;2.67;;;41.50;37.00;;;;;;5158015;27;20075;-72
2022/08/05 10:17:14;;;;;;;4.20;2.28;;;41.90;37.00;;;;;;5157779;27;20139;-72
2022/08/05 10:19:40;;;;;;;3.37;2.47;;;42.10;36.80;;;;;;5139367;27;20423;-72
2022/08/05 10:22:07;;;;;;;5.28;2.60;;;41.80;36.60;;;;;;5157678;27;20065;-72
2022/08/05 10:24:33;;;;;;;2.47;2.17;;;41.80;36.90;;;;;;5157894;27;20544;-71
2022/08/05 10:27:00;;;;;;;6.30;2.30;;;42.10;36.80;;;;;;5138742;27;20163;-72
2022/08/05 10:29:28;;;;;;;2.70;2.50;;;42.70;37.00;;;;;;5139007;27;20027;-75
2022/08/05 10:31:55;;;;;;;2.88;2.60;;;43.30;36.80;;;;;;5138884;27;20063;-75
2022/08/05 10:34:21;;;;;;;2.60;2.40;;;43.50;35.80;;;;;;5157592;27;20047;-75
2022/08/05 10:36:47;;;;;;;2.33;2.20;;;43.10;35.80;;;;;;5138843;27;20034;-74
2022/08/05 10:39:23;;;;;;;5.18;2.55;;;42.70;36.30;;;;;;5157947;27;20019;-74
2022/08/05 10:42:14;;;;;;;2.42;2.33;;;41.90;36.60;;;;;;5157207;27;20054;-74
2022/08/05 10:44:45;;;;;;;3.35;2.30;;;41.80;37.80;;;;;;5138954;27;20490;-75
2022/08/05 10:47:12;;;;;;;3.47;2.50;;;41.80;37.20;;;;;;5138915;27;20394;-75
2022/08/05 10:50:11;;;;;;;3.70;2.33;;;41.70;37.30;;;;;;5139216;27;20034;-76
2022/08/05 10:52:43;;;;;;;2.67;2.47;;;41.70;37.00;;;;;;5138620;27;20364;-74
2022/08/05 10:55:12;;;;;;;2.13;1.88;;;42.10;36.90;;;;;;5138586;27;20329;-75
2022/08/05 10:57:40;;;;;;;3.33;2.22;;;42.60;36.40;;;;;;5157200;27;20019;-75
2022/08/05 11:00:06;;;;;;;;;;;43.20;35.80;;;;;;5138924;27;20029;-76
2022/08/05 11:02:32;;;;;;;2.50;2.38;;;43.60;35.10;;;;;;5138942;27;20267;-75
2022/08/05 11:04:58;;;;;;;3.42;2.50;;;43.20;35.50;;;;;;5138363;27;20023;-76
2022/08/05 11:07:24;;;;;;;2.83;2.00;;;42.80;35.60;;;;;;5138371;27;20079;-75
2022/08/05 11:09:52;;;;;;;2.40;2.20;;;42.60;35.80;;;;;;5138343;27;20023;-75
2022/08/05 11:12:35;;;;;;;2.05;2.00;;;42.60;36.10;;;;;;5137924;27;20118;-76
2022/08/05 11:15:19;;;;;;;3.95;2.28;;;43.00;36.00;;;;;;5156690;27;20023;-75
2022/08/05 11:17:50;;;;;;;3.08;2.03;;;43.00;35.60;;;;;;5156745;27;20027;-76
2022/08/05 11:20:45;;;;;;;2.05;1.95;;;43.70;35.30;;;;;;5156477;27;20031;-74
2022/08/05 11:23:29;;;;;;;3.65;2.55;;;43.80;34.60;;;;;;5156704;27;20030;-75
2022/08/05 11:26:25;;;;;;;2.95;1.88;;;43.90;34.50;;;;;;5156675;27;20030;-74
2022/08/05 11:28:52;;;;;;;2.22;1.80;;;44.20;34.20;;;;;;5137251;27;20070;-76
2022/08/05 11:31:26;;;;;;;3.40;2.20;;;44.10;34.00;;;;;;5156640;27;20022;-74
2022/08/05 11:33:55;;;;;;;2.92;1.60;;;43.50;33.80;;;;;;5156631;27;20027;-75
2022/08/05 11:36:46;;;;;;;2.15;1.90;;;43.80;34.30;;;;;;5156646;27;20039;-75
2022/08/05 11:39:17;;;;;;;2.05;1.95;;;44.20;34.10;;;;;;5137769;27;20018;-76
2022/08/05 11:41:50;;;;;;;2.33;2.00;;;44.30;33.80;;;;;;5137950;27;20477;-76
2022/08/05 11:44:19;;;;;;;3.60;2.15;;;43.80;33.90;;;;;;5137892;27;20033;-77
2022/08/05 11:46:49;;;;;;;2.45;1.48;;;44.50;33.60;;;;;;5137588;27;20023;-76
2022/08/05 11:49:16;;;;;;;1.90;1.65;;;43.80;33.40;;;;;;5156383;27;20080;-76
2022/08/05 11:51:47;;;;;;;1.77;1.67;;;43.70;33.40;;;;;;5155993;27;20087;-74
2022/08/05 11:54:36;;;;;;;1.50;1.45;;;43.40;32.60;;;;;;5137637;27;20441;-76
2022/08/05 11:57:03;;;;;;;2.88;1.90;;;43.50;33.40;;;;;;5137535;27;20026;-74
2022/08/05 11:59:32;;;;;;;2.50;1.53;;;43.40;33.10;;;;;;5137052;27;20023;-74
2022/08/05 12:02:04;;;;;;;1.50;1.50;;;44.10;33.10;;;;;;5156021;27;20022;-74
2022/08/05 12:04:44;;;;;;;5.70;2.17;;;44.70;32.50;;;;;;5155821;27;20031;-74
2022/08/05 12:07:13;;;;;;;3.33;1.70;;;45.20;31.90;;;;;;5156266;27;20037;-74
2022/08/05 12:10:01;;;;;;;1.77;1.67;;;45.20;31.50;;;;;;5155839;27;20079;-74
2022/08/05 12:12:28;;;;;;;2.42;1.40;;;45.00;31.30;;;;;;5154940;27;20046;-74
2022/08/05 12:14:53;;;;;;;2.30;1.60;;;45.40;31.50;;;;;;5136647;27;20026;-75
2022/08/05 12:17:19;;;;;;;1.30;1.30;;;44.80;30.00;;;;;;5137128;27;20030;-74
2022/08/05 12:19:50;;;;;;;2.17;1.63;;;43.70;30.00;;;;;;5155568;27;20027;-73
2022/08/05 12:22:18;;;;;;;1.42;1.33;;;43.50;30.00;;;;;;5155611;27;20093;-73
2022/08/05 12:24:46;;;;;;;2.20;1.50;;;43.70;31.10;;;;;;5155406;27;20038;-74
2022/08/05 12:27:19;;;;;;;1.60;1.17;;;43.50;30.80;;;;;;5155251;27;20030;-75
2022/08/05 12:29:44;;;;;;;2.50;1.30;;;43.30;29.40;;;;;;5136875;27;20019;-73
2022/08/05 12:32:11;;;;;;;1.92;1.60;;;43.20;29.60;;;;;;5154871;27;20233;-70
2022/08/05 12:34:37;;;;;;;3.75;1.48;;;43.10;31.00;;;;;;5136589;27;20027;-73
2022/08/05 12:37:11;;;;;;;2.60;1.83;;;43.10;31.30;;;;;;5136551;27;20087;-73
2022/08/05 12:39:39;;;;;;;1.90;1.80;;;43.10;32.00;;;;;;5155339;27;20060;-73
2022/08/05 12:42:28;;;;;;;1.77;1.67;;;43.50;31.40;;;;;;5136458;27;20380;-73
2022/08/05 12:45:04;;;;;;;2.00;1.65;;;43.60;30.60;;;;;;5136369;27;20030;-73
2022/08/05 12:47:30;;;;;;;2.38;2.20;;;43.70;31.80;;;;;;5155453;27;20043;-73
2022/08/05 12:49:57;;;;;;;2.13;2.03;;;44.00;31.60;;;;;;5154642;27;20460;-73
2022/08/05 12:52:23;;;;;;;2.28;1.80;;;43.50;31.50;;;;;;5136566;27;20045;-74
2022/08/05 12:54:49;;;;;;;1.70;1.60;;;43.70;32.30;;;;;;5136594;27;20405;-73
2022/08/05 12:57:16;;;;;;;3.45;1.90;;;43.00;31.90;;;;;;5136623;27;20072;-72
2022/08/05 12:59:46;;;;;;;1.75;1.67;;;43.00;32.50;;;;;;5154826;27;20023;-72
2022/08/05 13:02:17;;;;;;;1.95;1.85;;;43.30;32.80;;;;;;5135894;27;20376;-72